Decoded Metar for DABC (CONSTANTINE in ALGERIA) (IATA:CZL) | Meteo·Mobile Aviation Weather
aviador You're here:

DABC Decoded Metar

CONSTANTINE in ALGERIA
Report Time2018-09-22 10:30:00
UTC Time2018-09-22 10:55:41
Flight Rules vfr VFR
Wind350° at 05 kt
W.Decomp.*RWY 34: 4.9 kt HW 0.9 kt RCW
RWY 32: 4.3 kt HW 2.5 kt RCW
W.Rank350° ranks 5
Current wind is below 350° avg. (7.8)
Visibility9999 m
Phenomena:N/A
Clouds:Scattered 023 Hf
Scattered 200 Hf
Expected CloudBase > 4,400 ft AGL from Temp-Dew spread
CeilingNone
Temp25°C (ISA +15)
Dew Point14°C (51% RH)
AAT24.5°C
QNH1025 hPa
Density Alt3,770 ft
Elevation2,277 ft
Report Wrong Elevation
Raw Report
DABC 221030Z 35005KT 260V040 9999 SCT023 SCT200 25/14 Q1025=

Extra information for DABC:More info

Metar Taf Metar & Taf Last 4 Metars F.Rules Stats Wind Profile Meteogram Temp Stats Airport Information Weather charts Add Link Nearby VenuesMetar ALERT Operation Metar Decoded Social comments